sensor_id;sensor_type;location;lat;lon;timestamp;temperature;humidity
17452;DHT22;8843;48.838;9.324;2023-04-23T00:01:33;15.00;82.00
17452;DHT22;8843;48.838;9.324;2023-04-23T00:04:07;14.90;81.80
17452;DHT22;8843;48.838;9.324;2023-04-23T00:06:34;14.90;81.50
17452;DHT22;8843;48.838;9.324;2023-04-23T00:09:02;14.90;81.00
17452;DHT22;8843;48.838;9.324;2023-04-23T00:11:29;14.90;81.40
17452;DHT22;8843;48.838;9.324;2023-04-23T00:13:57;14.90;81.10
17452;DHT22;8843;48.838;9.324;2023-04-23T00:16:25;14.90;80.90
17452;DHT22;8843;48.838;9.324;2023-04-23T00:18:51;14.90;80.90
17452;DHT22;8843;48.838;9.324;2023-04-23T00:21:20;14.90;80.20
17452;DHT22;8843;48.838;9.324;2023-04-23T00:23:46;14.90;81.00
17452;DHT22;8843;48.838;9.324;2023-04-23T00:26:13;14.90;80.80
17452;DHT22;8843;48.838;9.324;2023-04-23T00:28:43;14.90;80.70
17452;DHT22;8843;48.838;9.324;2023-04-23T00:31:09;14.90;80.70
17452;DHT22;8843;48.838;9.324;2023-04-23T00:33:36;14.90;80.60
17452;DHT22;8843;48.838;9.324;2023-04-23T00:36:04;14.90;80.30
17452;DHT22;8843;48.838;9.324;2023-04-23T00:38:32;14.90;80.60
17452;DHT22;8843;48.838;9.324;2023-04-23T00:41:00;14.80;79.80
17452;DHT22;8843;48.838;9.324;2023-04-23T00:43:27;14.80;80.20
17452;DHT22;8843;48.838;9.324;2023-04-23T00:45:54;14.80;80.20
17452;DHT22;8843;48.838;9.324;2023-04-23T00:48:21;14.80;80.50
17452;DHT22;8843;48.838;9.324;2023-04-23T00:50:48;14.80;80.00
17452;DHT22;8843;48.838;9.324;2023-04-23T00:53:15;14.80;80.10
17452;DHT22;8843;48.838;9.324;2023-04-23T00:55:43;14.80;80.10
17452;DHT22;8843;48.838;9.324;2023-04-23T00:58:10;14.80;80.20
17452;DHT22;8843;48.838;9.324;2023-04-23T01:00:43;14.80;80.30
17452;DHT22;8843;48.838;9.324;2023-04-23T01:03:13;14.70;80.60
17452;DHT22;8843;48.838;9.324;2023-04-23T01:05:41;14.70;80.40
17452;DHT22;8843;48.838;9.324;2023-04-23T01:08:09;14.70;80.90
17452;DHT22;8843;48.838;9.324;2023-04-23T01:10:40;14.70;80.80
17452;DHT22;8843;48.838;9.324;2023-04-23T01:13:08;14.70;81.40
17452;DHT22;8843;48.838;9.324;2023-04-23T01:15:35;14.70;81.80
17452;DHT22;8843;48.838;9.324;2023-04-23T01:18:02;14.70;82.00
17452;DHT22;8843;48.838;9.324;2023-04-23T01:20:32;14.80;82.20
17452;DHT22;8843;48.838;9.324;2023-04-23T01:23:01;14.70;82.00
17452;DHT22;8843;48.838;9.324;2023-04-23T01:25:28;14.70;82.30
17452;DHT22;8843;48.838;9.324;2023-04-23T01:27:55;14.80;83.50
17452;DHT22;8843;48.838;9.324;2023-04-23T01:30:23;14.80;82.80
17452;DHT22;8843;48.838;9.324;2023-04-23T01:32:52;14.70;82.80
17452;DHT22;8843;48.838;9.324;2023-04-23T01:35:20;14.80;83.20
17452;DHT22;8843;48.838;9.324;2023-04-23T01:37:48;14.80;83.30
17452;DHT22;8843;48.838;9.324;2023-04-23T01:40:17;14.80;83.00
17452;DHT22;8843;48.838;9.324;2023-04-23T01:42:44;14.80;83.30
17452;DHT22;8843;48.838;9.324;2023-04-23T01:45:11;14.70;83.40
17452;DHT22;8843;48.838;9.324;2023-04-23T01:47:39;14.70;83.20
17452;DHT22;8843;48.838;9.324;2023-04-23T01:50:07;14.70;83.20
17452;DHT22;8843;48.838;9.324;2023-04-23T01:52:34;14.70;83.20
17452;DHT22;8843;48.838;9.324;2023-04-23T01:55:01;14.70;83.00
17452;DHT22;8843;48.838;9.324;2023-04-23T01:57:29;14.70;83.80
17452;DHT22;8843;48.838;9.324;2023-04-23T02:00:02;14.70;83.40
17452;DHT22;8843;48.838;9.324;2023-04-23T02:02:32;14.70;83.70
17452;DHT22;8843;48.838;9.324;2023-04-23T02:05:00;14.70;83.50
17452;DHT22;8843;48.838;9.324;2023-04-23T02:07:29;14.70;83.20
17452;DHT22;8843;48.838;9.324;2023-04-23T02:09:56;14.70;83.60
17452;DHT22;8843;48.838;9.324;2023-04-23T02:12:23;14.70;83.70
17452;DHT22;8843;48.838;9.324;2023-04-23T02:14:51;14.70;83.90
17452;DHT22;8843;48.838;9.324;2023-04-23T02:17:19;14.70;83.90
17452;DHT22;8843;48.838;9.324;2023-04-23T02:19:47;14.70;83.90
17452;DHT22;8843;48.838;9.324;2023-04-23T02:22:14;14.70;84.10
17452;DHT22;8843;48.838;9.324;2023-04-23T02:24:41;14.70;83.90
17452;DHT22;8843;48.838;9.324;2023-04-23T02:27:08;14.70;84.00
17452;DHT22;8843;48.838;9.324;2023-04-23T02:29:35;14.70;84.50
17452;DHT22;8843;48.838;9.324;2023-04-23T02:32:04;14.70;84.40
17452;DHT22;8843;48.838;9.324;2023-04-23T02:34:31;14.70;84.40
17452;DHT22;8843;48.838;9.324;2023-04-23T02:36:58;14.60;85.60
17452;DHT22;8843;48.838;9.324;2023-04-23T02:39:25;14.70;84.90
17452;DHT22;8843;48.838;9.324;2023-04-23T02:41:51;14.70;85.20
17452;DHT22;8843;48.838;9.324;2023-04-23T02:44:18;14.60;85.20
17452;DHT22;8843;48.838;9.324;2023-04-23T02:46:45;14.70;85.90
17452;DHT22;8843;48.838;9.324;2023-04-23T02:49:13;14.60;85.10
17452;DHT22;8843;48.838;9.324;2023-04-23T02:51:40;14.60;84.90
17452;DHT22;8843;48.838;9.324;2023-04-23T02:54:07;14.60;85.40
17452;DHT22;8843;48.838;9.324;2023-04-23T02:56:34;14.60;85.60
17452;DHT22;8843;48.838;9.324;2023-04-23T02:59:01;14.60;85.70
17452;DHT22;8843;48.838;9.324;2023-04-23T03:01:28;14.60;85.60
17452;DHT22;8843;48.838;9.324;2023-04-23T03:03:54;14.60;85.80
17452;DHT22;8843;48.838;9.324;2023-04-23T03:06:23;14.60;85.60
17452;DHT22;8843;48.838;9.324;2023-04-23T03:08:50;14.60;86.50
17452;DHT22;8843;48.838;9.324;2023-04-23T03:11:17;14.60;85.40
17452;DHT22;8843;48.838;9.324;2023-04-23T03:13:43;14.60;86.10
17452;DHT22;8843;48.838;9.324;2023-04-23T03:16:10;14.60;85.90
17452;DHT22;8843;48.838;9.324;2023-04-23T03:18:37;14.60;85.40
17452;DHT22;8843;48.838;9.324;2023-04-23T03:21:04;14.60;85.70
17452;DHT22;8843;48.838;9.324;2023-04-23T03:23:32;14.60;85.60
17452;DHT22;8843;48.838;9.324;2023-04-23T03:25:59;14.60;86.00
17452;DHT22;8843;48.838;9.324;2023-04-23T03:28:26;14.60;85.80
17452;DHT22;8843;48.838;9.324;2023-04-23T03:30:53;14.50;85.60
17452;DHT22;8843;48.838;9.324;2023-04-23T03:33:20;14.50;85.80
17452;DHT22;8843;48.838;9.324;2023-04-23T03:35:47;14.50;85.30
17452;DHT22;8843;48.838;9.324;2023-04-23T03:38:14;14.50;85.20
17452;DHT22;8843;48.838;9.324;2023-04-23T03:40:42;14.50;85.70
17452;DHT22;8843;48.838;9.324;2023-04-23T03:43:09;14.50;85.40
17452;DHT22;8843;48.838;9.324;2023-04-23T03:45:36;14.50;86.20
17452;DHT22;8843;48.838;9.324;2023-04-23T03:48:03;14.50;86.20
17452;DHT22;8843;48.838;9.324;2023-04-23T03:50:30;14.50;85.50
17452;DHT22;8843;48.838;9.324;2023-04-23T03:52:59;14.50;86.10
17452;DHT22;8843;48.838;9.324;2023-04-23T03:55:26;14.50;87.00
17452;DHT22;8843;48.838;9.324;2023-04-23T03:57:54;14.50;86.40
17452;DHT22;8843;48.838;9.324;2023-04-23T04:00:21;14.50;86.20
17452;DHT22;8843;48.838;9.324;2023-04-23T04:02:48;14.50;86.50
17452;DHT22;8843;48.838;9.324;2023-04-23T04:05:15;14.50;86.50
17452;DHT22;8843;48.838;9.324;2023-04-23T04:07:42;14.50;85.90
17452;DHT22;8843;48.838;9.324;2023-04-23T04:10:09;14.50;87.60
17452;DHT22;8843;48.838;9.324;2023-04-23T04:12:36;14.50;86.90
17452;DHT22;8843;48.838;9.324;2023-04-23T04:15:06;14.50;86.60
17452;DHT22;8843;48.838;9.324;2023-04-23T04:17:34;14.50;86.70
17452;DHT22;8843;48.838;9.324;2023-04-23T04:20:01;14.40;86.20
17452;DHT22;8843;48.838;9.324;2023-04-23T04:22:28;14.40;86.70
17452;DHT22;8843;48.838;9.324;2023-04-23T04:24:55;14.50;86.50
17452;DHT22;8843;48.838;9.324;2023-04-23T04:27:22;14.40;86.80
17452;DHT22;8843;48.838;9.324;2023-04-23T04:29:49;14.50;86.60
17452;DHT22;8843;48.838;9.324;2023-04-23T04:32:17;14.50;86.10
17452;DHT22;8843;48.838;9.324;2023-04-23T04:34:44;14.50;86.70
17452;DHT22;8843;48.838;9.324;2023-04-23T04:37:11;14.40;86.80
17452;DHT22;8843;48.838;9.324;2023-04-23T04:39:38;14.40;86.60
17452;DHT22;8843;48.838;9.324;2023-04-23T04:42:05;14.40;86.60
17452;DHT22;8843;48.838;9.324;2023-04-23T04:44:32;14.40;86.80
17452;DHT22;8843;48.838;9.324;2023-04-23T04:47:02;14.40;87.60
17452;DHT22;8843;48.838;9.324;2023-04-23T04:49:30;14.40;86.50
17452;DHT22;8843;48.838;9.324;2023-04-23T04:51:57;14.40;86.80
17452;DHT22;8843;48.838;9.324;2023-04-23T04:54:24;14.40;86.90
17452;DHT22;8843;48.838;9.324;2023-04-23T04:56:50;14.40;87.10
17452;DHT22;8843;48.838;9.324;2023-04-23T04:59:17;14.40;87.20
17452;DHT22;8843;48.838;9.324;2023-04-23T05:01:44;14.40;87.00
17452;DHT22;8843;48.838;9.324;2023-04-23T05:04:12;14.40;86.70
17452;DHT22;8843;48.838;9.324;2023-04-23T05:06:40;14.40;86.80
17452;DHT22;8843;48.838;9.324;2023-04-23T05:09:07;14.40;87.10
17452;DHT22;8843;48.838;9.324;2023-04-23T05:11:35;14.40;87.10
17452;DHT22;8843;48.838;9.324;2023-04-23T05:14:02;14.40;87.10
17452;DHT22;8843;48.838;9.324;2023-04-23T05:16:29;14.40;87.00
17452;DHT22;8843;48.838;9.324;2023-04-23T05:18:56;14.40;87.30
17452;DHT22;8843;48.838;9.324;2023-04-23T05:21:23;14.40;87.30
17452;DHT22;8843;48.838;9.324;2023-04-23T05:23:53;14.40;86.90
17452;DHT22;8843;48.838;9.324;2023-04-23T05:26:20;14.40;86.90
17452;DHT22;8843;48.838;9.324;2023-04-23T05:28:47;14.40;87.50
17452;DHT22;8843;48.838;9.324;2023-04-23T05:31:14;14.40;86.90
17452;DHT22;8843;48.838;9.324;2023-04-23T05:33:41;14.40;87.70
17452;DHT22;8843;48.838;9.324;2023-04-23T05:36:09;14.40;87.80
17452;DHT22;8843;48.838;9.324;2023-04-23T05:38:37;14.40;88.20
17452;DHT22;8843;48.838;9.324;2023-04-23T05:41:05;14.40;88.00
17452;DHT22;8843;48.838;9.324;2023-04-23T05:43:32;14.30;87.50
17452;DHT22;8843;48.838;9.324;2023-04-23T05:45:59;14.40;87.50
17452;DHT22;8843;48.838;9.324;2023-04-23T05:48:28;14.40;87.90
17452;DHT22;8843;48.838;9.324;2023-04-23T05:50:55;14.40;87.70
17452;DHT22;8843;48.838;9.324;2023-04-23T05:53:22;14.40;88.40
17452;DHT22;8843;48.838;9.324;2023-04-23T05:55:49;14.20;89.40
17452;DHT22;8843;48.838;9.324;2023-04-23T05:58:17;14.40;87.30
17452;DHT22;8843;48.838;9.324;2023-04-23T06:00:45;14.50;86.40
17452;DHT22;8843;48.838;9.324;2023-04-23T06:03:12;14.50;87.20
17452;DHT22;8843;48.838;9.324;2023-04-23T06:05:39;14.90;85.40
17452;DHT22;8843;48.838;9.324;2023-04-23T06:08:07;15.10;84.60
17452;DHT22;8843;48.838;9.324;2023-04-23T06:10:34;15.10;85.00
17452;DHT22;8843;48.838;9.324;2023-04-23T06:13:01;15.00;88.70
17452;DHT22;8843;48.838;9.324;2023-04-23T06:15:29;14.90;86.30
17452;DHT22;8843;48.838;9.324;2023-04-23T06:17:56;14.80;87.00
17452;DHT22;8843;48.838;9.324;2023-04-23T06:20:24;14.70;87.40
17452;DHT22;8843;48.838;9.324;2023-04-23T06:22:51;14.60;88.10
17452;DHT22;8843;48.838;9.324;2023-04-23T06:25:18;14.50;88.00
17452;DHT22;8843;48.838;9.324;2023-04-23T06:27:45;14.50;89.20
17452;DHT22;8843;48.838;9.324;2023-04-23T06:30:12;14.50;89.10
17452;DHT22;8843;48.838;9.324;2023-04-23T06:32:40;14.40;89.00
17452;DHT22;8843;48.838;9.324;2023-04-23T06:35:08;14.50;89.00
17452;DHT22;8843;48.838;9.324;2023-04-23T06:37:35;14.50;89.40
17452;DHT22;8843;48.838;9.324;2023-04-23T06:40:02;14.50;89.20
17452;DHT22;8843;48.838;9.324;2023-04-23T06:42:29;14.50;89.90
17452;DHT22;8843;48.838;9.324;2023-04-23T06:44:56;14.50;89.60
17452;DHT22;8843;48.838;9.324;2023-04-23T06:47:28;14.50;89.40
17452;DHT22;8843;48.838;9.324;2023-04-23T06:49:57;14.40;88.70
17452;DHT22;8843;48.838;9.324;2023-04-23T06:52:24;14.40;89.80
17452;DHT22;8843;48.838;9.324;2023-04-23T06:54:51;14.50;90.00
17452;DHT22;8843;48.838;9.324;2023-04-23T06:57:18;14.40;90.00
17452;DHT22;8843;48.838;9.324;2023-04-23T06:59:46;14.40;90.20
17452;DHT22;8843;48.838;9.324;2023-04-23T07:02:13;14.50;90.00
17452;DHT22;8843;48.838;9.324;2023-04-23T07:04:40;14.40;90.20
17452;DHT22;8843;48.838;9.324;2023-04-23T07:07:08;14.50;90.30
17452;DHT22;8843;48.838;9.324;2023-04-23T07:09:35;14.50;90.50
17452;DHT22;8843;48.838;9.324;2023-04-23T07:12:02;14.50;90.50
17452;DHT22;8843;48.838;9.324;2023-04-23T07:14:29;14.50;90.50
17452;DHT22;8843;48.838;9.324;2023-04-23T07:16:57;14.60;90.40
17452;DHT22;8843;48.838;9.324;2023-04-23T07:19:24;14.60;90.30
17452;DHT22;8843;48.838;9.324;2023-04-23T07:21:51;14.60;89.90
17452;DHT22;8843;48.838;9.324;2023-04-23T07:24:20;14.60;90.00
17452;DHT22;8843;48.838;9.324;2023-04-23T07:26:47;14.50;90.20
17452;DHT22;8843;48.838;9.324;2023-04-23T07:29:14;14.60;90.10
17452;DHT22;8843;48.838;9.324;2023-04-23T07:31:40;14.60;90.40
17452;DHT22;8843;48.838;9.324;2023-04-23T07:34:07;14.60;90.30
17452;DHT22;8843;48.838;9.324;2023-04-23T07:36:34;14.60;90.20
17452;DHT22;8843;48.838;9.324;2023-04-23T07:39:01;14.60;90.10
17452;DHT22;8843;48.838;9.324;2023-04-23T07:41:31;14.60;90.30
17452;DHT22;8843;48.838;9.324;2023-04-23T07:43:58;14.60;90.30
17452;DHT22;8843;48.838;9.324;2023-04-23T07:46:25;14.70;90.30
17452;DHT22;8843;48.838;9.324;2023-04-23T07:48:52;14.70;89.80
17452;DHT22;8843;48.838;9.324;2023-04-23T07:51:20;14.60;90.00
17452;DHT22;8843;48.838;9.324;2023-04-23T07:53:51;14.70;90.10
17452;DHT22;8843;48.838;9.324;2023-04-23T07:56:19;14.70;90.10
17452;DHT22;8843;48.838;9.324;2023-04-23T07:58:47;14.70;89.50
17452;DHT22;8843;48.838;9.324;2023-04-23T08:01:14;14.70;89.90
17452;DHT22;8843;48.838;9.324;2023-04-23T08:03:41;14.70;89.60
17452;DHT22;8843;48.838;9.324;2023-04-23T08:06:09;14.70;90.00
17452;DHT22;8843;48.838;9.324;2023-04-23T08:08:36;14.70;89.80
17452;DHT22;8843;48.838;9.324;2023-04-23T08:11:04;14.70;89.70
17452;DHT22;8843;48.838;9.324;2023-04-23T08:13:31;14.70;89.10
17452;DHT22;8843;48.838;9.324;2023-04-23T08:15:59;14.70;89.40
17452;DHT22;8843;48.838;9.324;2023-04-23T08:18:26;14.70;89.10
17452;DHT22;8843;48.838;9.324;2023-04-23T08:20:53;14.80;89.10
17452;DHT22;8843;48.838;9.324;2023-04-23T08:23:20;14.80;89.20
17452;DHT22;8843;48.838;9.324;2023-04-23T08:25:47;14.80;89.00
17452;DHT22;8843;48.838;9.324;2023-04-23T08:28:14;14.80;88.80
17452;DHT22;8843;48.838;9.324;2023-04-23T08:30:41;14.80;88.20
17452;DHT22;8843;48.838;9.324;2023-04-23T08:33:09;14.80;89.20
17452;DHT22;8843;48.838;9.324;2023-04-23T08:35:36;14.80;88.40
17452;DHT22;8843;48.838;9.324;2023-04-23T08:38:03;14.70;87.90
17452;DHT22;8843;48.838;9.324;2023-04-23T08:40:31;14.70;88.20
17452;DHT22;8843;48.838;9.324;2023-04-23T08:43:01;14.70;88.00
17452;DHT22;8843;48.838;9.324;2023-04-23T08:45:29;14.70;88.40
17452;DHT22;8843;48.838;9.324;2023-04-23T08:47:58;14.70;88.30
17452;DHT22;8843;48.838;9.324;2023-04-23T08:50:28;14.80;88.50
17452;DHT22;8843;48.838;9.324;2023-04-23T08:52:56;14.80;88.70
17452;DHT22;8843;48.838;9.324;2023-04-23T08:55:24;14.80;88.70
17452;DHT22;8843;48.838;9.324;2023-04-23T08:57:51;14.70;88.40
17452;DHT22;8843;48.838;9.324;2023-04-23T09:00:19;14.80;88.80
17452;DHT22;8843;48.838;9.324;2023-04-23T09:02:48;14.80;89.10
17452;DHT22;8843;48.838;9.324;2023-04-23T09:05:15;14.80;89.40
17452;DHT22;8843;48.838;9.324;2023-04-23T09:07:43;14.80;89.80
17452;DHT22;8843;48.838;9.324;2023-04-23T09:10:11;14.90;89.20
17452;DHT22;8843;48.838;9.324;2023-04-23T09:12:41;14.90;88.30
17452;DHT22;8843;48.838;9.324;2023-04-23T09:15:09;15.00;89.10
17452;DHT22;8843;48.838;9.324;2023-04-23T09:17:38;15.00;89.20
17452;DHT22;8843;48.838;9.324;2023-04-23T09:20:07;15.10;88.90
17452;DHT22;8843;48.838;9.324;2023-04-23T09:22:39;15.00;89.20
17452;DHT22;8843;48.838;9.324;2023-04-23T09:25:09;15.10;88.50
17452;DHT22;8843;48.838;9.324;2023-04-23T09:27:36;15.10;88.60
17452;DHT22;8843;48.838;9.324;2023-04-23T09:30:04;15.10;88.50
17452;DHT22;8843;48.838;9.324;2023-04-23T09:32:32;15.20;88.20
17452;DHT22;8843;48.838;9.324;2023-04-23T09:35:01;15.20;88.40
17452;DHT22;8843;48.838;9.324;2023-04-23T09:37:29;15.30;88.90
17452;DHT22;8843;48.838;9.324;2023-04-23T09:39:58;15.40;88.30
17452;DHT22;8843;48.838;9.324;2023-04-23T09:42:27;15.40;88.20
17452;DHT22;8843;48.838;9.324;2023-04-23T09:44:55;15.40;87.40
17452;DHT22;8843;48.838;9.324;2023-04-23T09:47:23;15.40;89.10
17452;DHT22;8843;48.838;9.324;2023-04-23T09:49:50;15.60;88.70
17452;DHT22;8843;48.838;9.324;2023-04-23T09:52:17;15.60;86.80
17452;DHT22;8843;48.838;9.324;2023-04-23T09:54:45;15.70;89.30
17452;DHT22;8843;48.838;9.324;2023-04-23T09:57:13;16.00;89.60
17452;DHT22;8843;48.838;9.324;2023-04-23T09:59:41;16.10;89.00
17452;DHT22;8843;48.838;9.324;2023-04-23T10:02:09;16.30;87.90
17452;DHT22;8843;48.838;9.324;2023-04-23T10:04:37;16.30;87.60
17452;DHT22;8843;48.838;9.324;2023-04-23T10:07:05;16.40;87.60
17452;DHT22;8843;48.838;9.324;2023-04-23T10:09:38;16.60;83.70
17452;DHT22;8843;48.838;9.324;2023-04-23T10:12:06;16.40;84.50
17452;DHT22;8843;48.838;9.324;2023-04-23T10:14:34;16.70;85.80
17452;DHT22;8843;48.838;9.324;2023-04-23T10:17:03;16.90;85.30
17452;DHT22;8843;48.838;9.324;2023-04-23T10:19:31;17.00;83.50
17452;DHT22;8843;48.838;9.324;2023-04-23T10:21:59;16.90;83.10
17452;DHT22;8843;48.838;9.324;2023-04-23T10:24:32;17.10;82.90
17452;DHT22;8843;48.838;9.324;2023-04-23T10:27:01;17.30;83.60
17452;DHT22;8843;48.838;9.324;2023-04-23T10:29:29;17.40;83.20
17452;DHT22;8843;48.838;9.324;2023-04-23T10:31:58;17.60;81.90
17452;DHT22;8843;48.838;9.324;2023-04-23T10:34:27;17.40;80.50
17452;DHT22;8843;48.838;9.324;2023-04-23T10:36:55;17.50;80.40
17452;DHT22;8843;48.838;9.324;2023-04-23T10:39:26;17.60;80.00
17452;DHT22;8843;48.838;9.324;2023-04-23T10:41:54;17.70;79.40
17452;DHT22;8843;48.838;9.324;2023-04-23T10:44:21;17.60;78.10
17452;DHT22;8843;48.838;9.324;2023-04-23T10:46:52;17.60;78.60
17452;DHT22;8843;48.838;9.324;2023-04-23T10:49:22;17.50;78.70
17452;DHT22;8843;48.838;9.324;2023-04-23T10:51:58;17.50;80.50
17452;DHT22;8843;48.838;9.324;2023-04-23T10:54:28;17.40;78.70
17452;DHT22;8843;48.838;9.324;2023-04-23T10:56:58;17.40;78.50
17452;DHT22;8843;48.838;9.324;2023-04-23T10:59:28;17.50;78.30
17452;DHT22;8843;48.838;9.324;2023-04-23T11:01:56;17.50;78.60
17452;DHT22;8843;48.838;9.324;2023-04-23T11:04:27;17.80;79.00
17452;DHT22;8843;48.838;9.324;2023-04-23T11:07:04;18.00;78.30
17452;DHT22;8843;48.838;9.324;2023-04-23T11:09:36;18.00;77.40
17452;DHT22;8843;48.838;9.324;2023-04-23T11:12:06;18.10;77.50
17452;DHT22;8843;48.838;9.324;2023-04-23T11:14:40;18.40;76.30
17452;DHT22;8843;48.838;9.324;2023-04-23T11:17:10;18.00;75.20
17452;DHT22;8843;48.838;9.324;2023-04-23T11:19:38;18.30;75.70
17452;DHT22;8843;48.838;9.324;2023-04-23T11:22:12;18.50;73.50
17452;DHT22;8843;48.838;9.324;2023-04-23T11:24:40;18.70;74.00
17452;DHT22;8843;48.838;9.324;2023-04-23T11:27:08;19.00;75.50
17452;DHT22;8843;48.838;9.324;2023-04-23T11:29:36;19.30;73.60
17452;DHT22;8843;48.838;9.324;2023-04-23T11:32:04;19.00;70.60
17452;DHT22;8843;48.838;9.324;2023-04-23T11:34:35;19.00;72.00
17452;DHT22;8843;48.838;9.324;2023-04-23T11:37:02;18.70;70.50
17452;DHT22;8843;48.838;9.324;2023-04-23T11:39:30;18.80;71.00
17452;DHT22;8843;48.838;9.324;2023-04-23T11:41:57;18.80;69.00
17452;DHT22;8843;48.838;9.324;2023-04-23T11:44:28;18.70;69.20
17452;DHT22;8843;48.838;9.324;2023-04-23T11:46:55;18.60;69.30
17452;DHT22;8843;48.838;9.324;2023-04-23T11:49:25;18.40;68.30
17452;DHT22;8843;48.838;9.324;2023-04-23T11:51:52;18.50;69.60
17452;DHT22;8843;48.838;9.324;2023-04-23T11:54:24;18.50;69.70
17452;DHT22;8843;48.838;9.324;2023-04-23T11:56:53;18.50;70.30
17452;DHT22;8843;48.838;9.324;2023-04-23T11:59:21;18.50;71.40
17452;DHT22;8843;48.838;9.324;2023-04-23T12:01:49;18.60;71.90
17452;DHT22;8843;48.838;9.324;2023-04-23T12:04:19;18.50;72.10
17452;DHT22;8843;48.838;9.324;2023-04-23T12:06:47;18.40;70.70
17452;DHT22;8843;48.838;9.324;2023-04-23T12:09:16;18.60;71.60
17452;DHT22;8843;48.838;9.324;2023-04-23T12:11:44;18.50;70.90
17452;DHT22;8843;48.838;9.324;2023-04-23T12:14:13;18.50;70.20
17452;DHT22;8843;48.838;9.324;2023-04-23T12:16:42;18.70;70.20
17452;DHT22;8843;48.838;9.324;2023-04-23T12:19:12;18.80;71.00
17452;DHT22;8843;48.838;9.324;2023-04-23T12:21:51;18.70;67.10
17452;DHT22;8843;48.838;9.324;2023-04-23T12:24:20;19.10;70.10
17452;DHT22;8843;48.838;9.324;2023-04-23T12:26:52;19.20;69.40
17452;DHT22;8843;48.838;9.324;2023-04-23T12:29:22;18.90;68.30
17452;DHT22;8843;48.838;9.324;2023-04-23T12:31:50;19.10;69.60
17452;DHT22;8843;48.838;9.324;2023-04-23T12:34:18;19.20;69.40
17452;DHT22;8843;48.838;9.324;2023-04-23T12:36:48;19.20;68.50
17452;DHT22;8843;48.838;9.324;2023-04-23T12:39:19;19.30;67.80
17452;DHT22;8843;48.838;9.324;2023-04-23T12:41:49;19.30;68.00
17452;DHT22;8843;48.838;9.324;2023-04-23T12:44:16;19.30;68.40
17452;DHT22;8843;48.838;9.324;2023-04-23T12:46:44;19.10;68.00
17452;DHT22;8843;48.838;9.324;2023-04-23T12:49:11;19.50;69.30
17452;DHT22;8843;48.838;9.324;2023-04-23T12:51:38;19.60;68.80
17452;DHT22;8843;48.838;9.324;2023-04-23T12:54:05;19.60;66.90
17452;DHT22;8843;48.838;9.324;2023-04-23T12:56:32;19.50;68.50
17452;DHT22;8843;48.838;9.324;2023-04-23T12:59:00;19.80;67.50
17452;DHT22;8843;48.838;9.324;2023-04-23T13:01:29;19.80;67.00
17452;DHT22;8843;48.838;9.324;2023-04-23T13:03:57;20.10;66.00
17452;DHT22;8843;48.838;9.324;2023-04-23T13:06:24;19.90;65.90
17452;DHT22;8843;48.838;9.324;2023-04-23T13:08:53;20.00;67.40
17452;DHT22;8843;48.838;9.324;2023-04-23T13:11:21;20.20;67.60
17452;DHT22;8843;48.838;9.324;2023-04-23T13:13:48;19.80;66.50
17452;DHT22;8843;48.838;9.324;2023-04-23T13:16:16;20.10;66.70
17452;DHT22;8843;48.838;9.324;2023-04-23T13:18:44;20.10;66.90
17452;DHT22;8843;48.838;9.324;2023-04-23T13:21:12;20.00;66.20
17452;DHT22;8843;48.838;9.324;2023-04-23T13:23:39;20.40;66.60
17452;DHT22;8843;48.838;9.324;2023-04-23T13:26:06;20.70;65.60
17452;DHT22;8843;48.838;9.324;2023-04-23T13:28:34;20.80;65.90
17452;DHT22;8843;48.838;9.324;2023-04-23T13:31:01;20.30;65.40
17452;DHT22;8843;48.838;9.324;2023-04-23T13:33:28;20.50;64.60
17452;DHT22;8843;48.838;9.324;2023-04-23T13:35:56;20.50;65.10
17452;DHT22;8843;48.838;9.324;2023-04-23T13:38:24;20.70;63.30
17452;DHT22;8843;48.838;9.324;2023-04-23T13:40:52;20.80;63.90
17452;DHT22;8843;48.838;9.324;2023-04-23T13:43:19;20.70;63.60
17452;DHT22;8843;48.838;9.324;2023-04-23T13:45:46;20.80;63.60
17452;DHT22;8843;48.838;9.324;2023-04-23T13:48:13;20.80;63.10
17452;DHT22;8843;48.838;9.324;2023-04-23T13:50:40;21.00;62.50
17452;DHT22;8843;48.838;9.324;2023-04-23T13:53:07;20.90;61.90
17452;DHT22;8843;48.838;9.324;2023-04-23T13:55:36;20.80;62.40
17452;DHT22;8843;48.838;9.324;2023-04-23T13:58:03;20.70;61.90
17452;DHT22;8843;48.838;9.324;2023-04-23T14:00:30;20.70;61.00
17452;DHT22;8843;48.838;9.324;2023-04-23T14:02:57;20.10;62.20
17452;DHT22;8843;48.838;9.324;2023-04-23T14:05:24;20.00;61.60
17452;DHT22;8843;48.838;9.324;2023-04-23T14:07:51;20.30;62.20
17452;DHT22;8843;48.838;9.324;2023-04-23T14:10:18;20.50;62.40
17452;DHT22;8843;48.838;9.324;2023-04-23T14:12:46;20.30;61.60
17452;DHT22;8843;48.838;9.324;2023-04-23T14:15:14;20.10;61.90
17452;DHT22;8843;48.838;9.324;2023-04-23T14:17:41;20.00;60.90
17452;DHT22;8843;48.838;9.324;2023-04-23T14:20:10;19.60;63.20
17452;DHT22;8843;48.838;9.324;2023-04-23T14:22:40;19.70;62.70
17452;DHT22;8843;48.838;9.324;2023-04-23T14:25:09;19.90;62.50
17452;DHT22;8843;48.838;9.324;2023-04-23T14:27:39;20.00;61.80
17452;DHT22;8843;48.838;9.324;2023-04-23T14:30:14;20.10;63.30
17452;DHT22;8843;48.838;9.324;2023-04-23T14:32:41;20.00;61.70
17452;DHT22;8843;48.838;9.324;2023-04-23T14:35:11;19.80;62.20
17452;DHT22;8843;48.838;9.324;2023-04-23T14:37:38;19.40;62.30
17452;DHT22;8843;48.838;9.324;2023-04-23T14:40:08;19.30;62.80
17452;DHT22;8843;48.838;9.324;2023-04-23T14:42:37;19.50;62.60
17452;DHT22;8843;48.838;9.324;2023-04-23T14:45:05;19.80;61.80
17452;DHT22;8843;48.838;9.324;2023-04-23T14:47:33;20.00;61.90
17452;DHT22;8843;48.838;9.324;2023-04-23T14:50:00;20.00;61.30
17452;DHT22;8843;48.838;9.324;2023-04-23T14:52:27;19.90;62.30
17452;DHT22;8843;48.838;9.324;2023-04-23T14:54:54;19.70;62.50
17452;DHT22;8843;48.838;9.324;2023-04-23T14:57:21;19.80;62.50
17452;DHT22;8843;48.838;9.324;2023-04-23T14:59:47;19.90;62.00
17452;DHT22;8843;48.838;9.324;2023-04-23T15:02:14;19.90;62.50
17452;DHT22;8843;48.838;9.324;2023-04-23T15:04:44;19.50;61.50
17452;DHT22;8843;48.838;9.324;2023-04-23T15:07:11;19.60;62.30
17452;DHT22;8843;48.838;9.324;2023-04-23T15:09:38;19.60;61.80
17452;DHT22;8843;48.838;9.324;2023-04-23T15:12:06;19.50;62.20
17452;DHT22;8843;48.838;9.324;2023-04-23T15:14:49;19.50;62.60
17452;DHT22;8843;48.838;9.324;2023-04-23T15:17:16;19.50;62.40
17452;DHT22;8843;48.838;9.324;2023-04-23T15:19:44;19.50;63.10
17452;DHT22;8843;48.838;9.324;2023-04-23T15:22:11;19.10;61.60
17452;DHT22;8843;48.838;9.324;2023-04-23T15:24:38;19.00;63.00
17452;DHT22;8843;48.838;9.324;2023-04-23T15:27:05;19.10;62.30
17452;DHT22;8843;48.838;9.324;2023-04-23T15:29:32;19.20;62.60
17452;DHT22;8843;48.838;9.324;2023-04-23T15:31:59;19.10;63.00
17452;DHT22;8843;48.838;9.324;2023-04-23T15:34:26;19.10;61.50
17452;DHT22;8843;48.838;9.324;2023-04-23T15:36:54;19.00;62.70
17452;DHT22;8843;48.838;9.324;2023-04-23T15:39:21;18.90;62.20
17452;DHT22;8843;48.838;9.324;2023-04-23T15:41:50;18.80;61.40
17452;DHT22;8843;48.838;9.324;2023-04-23T15:44:18;18.80;62.00
17452;DHT22;8843;48.838;9.324;2023-04-23T15:46:45;18.80;61.30
17452;DHT22;8843;48.838;9.324;2023-04-23T15:49:12;18.80;61.80